createdAt,value
2018-08-13T00:01:38.225Z,21.20
2018-08-13T00:04:06.617Z,21.20
2018-08-13T00:06:35.155Z,21.20
2018-08-13T00:09:04.857Z,21.20
2018-08-13T00:11:33.436Z,21.20
2018-08-13T00:14:01.773Z,21.20
2018-08-13T00:16:30.145Z,21.20
2018-08-13T00:18:59.020Z,21.20
2018-08-13T00:21:27.432Z,21.20
2018-08-13T00:23:55.852Z,21.30
2018-08-13T00:26:24.195Z,21.20
2018-08-13T00:28:52.583Z,21.30
2018-08-13T00:31:20.922Z,21.20
2018-08-13T00:33:49.297Z,21.20
2018-08-13T00:36:17.817Z,21.20
2018-08-13T00:38:49.253Z,21.20
2018-08-13T00:41:17.619Z,21.20
2018-08-13T00:43:46.020Z,21.20
2018-08-13T00:46:14.317Z,21.20
2018-08-13T00:48:43.309Z,21.10
2018-08-13T00:51:11.674Z,21.10
2018-08-13T00:53:41.133Z,21.00
2018-08-13T00:56:09.513Z,21.00
2018-08-13T00:58:37.832Z,21.00
2018-08-13T01:01:06.777Z,21.00
2018-08-13T01:03:35.109Z,21.10
2018-08-13T01:06:03.434Z,21.00
2018-08-13T01:08:31.769Z,21.00
2018-08-13T01:11:01.015Z,21.00
2018-08-13T01:13:29.354Z,21.00
2018-08-13T01:15:57.682Z,20.90
2018-08-13T01:18:26.174Z,20.90
2018-08-13T01:20:54.460Z,20.80
2018-08-13T01:23:22.765Z,20.90
2018-08-13T01:25:51.291Z,20.80
2018-08-13T01:28:20.465Z,20.80
2018-08-13T01:30:48.769Z,20.80
2018-08-13T01:33:17.112Z,20.80
2018-08-13T01:35:45.428Z,20.80
2018-08-13T01:38:13.733Z,20.70
2018-08-13T01:40:42.178Z,20.70
2018-08-13T01:43:10.473Z,20.60
2018-08-13T01:45:38.799Z,20.50
2018-08-13T01:48:07.309Z,20.60
2018-08-13T01:50:35.609Z,20.60
2018-08-13T01:53:04.033Z,20.60
2018-08-13T01:55:32.373Z,20.60
2018-08-13T01:58:00.668Z,20.60
2018-08-13T02:00:28.985Z,20.70
2018-08-13T02:02:57.420Z,20.70
2018-08-13T02:05:25.724Z,20.70
2018-08-13T02:07:54.067Z,20.70
2018-08-13T02:10:22.506Z,20.70
2018-08-13T02:12:50.816Z,20.70
2018-08-13T02:15:19.137Z,20.70
2018-08-13T02:17:47.542Z,20.70
2018-08-13T02:20:15.856Z,20.70
2018-08-13T02:22:44.166Z,20.70
2018-08-13T02:25:12.576Z,20.70
2018-08-13T02:27:41.062Z,20.60
2018-08-13T02:30:11.061Z,20.60
2018-08-13T02:32:39.503Z,20.50
2018-08-13T02:35:08.736Z,20.50
2018-08-13T02:37:37.505Z,20.50
2018-08-13T02:40:07.093Z,20.50
2018-08-13T02:42:35.481Z,20.40
2018-08-13T02:45:05.032Z,20.40
2018-08-13T02:47:33.341Z,20.30
2018-08-13T02:50:01.718Z,20.40
2018-08-13T02:52:30.020Z,20.30
2018-08-13T02:54:58.348Z,20.20
2018-08-13T02:57:26.639Z,20.20
2018-08-13T02:59:54.986Z,20.30
2018-08-13T03:02:23.299Z,20.30
2018-08-13T03:04:52.145Z,20.30
2018-08-13T03:07:20.448Z,20.30
2018-08-13T03:09:48.809Z,20.30
2018-08-13T03:12:17.130Z,20.30
2018-08-13T03:14:45.463Z,20.30
2018-08-13T03:17:14.000Z,20.30
2018-08-13T03:19:43.031Z,20.20
2018-08-13T03:22:11.376Z,20.10
2018-08-13T03:24:39.848Z,20.10
2018-08-13T03:27:08.197Z,20.20
2018-08-13T03:29:36.565Z,20.20
2018-08-13T03:32:05.042Z,20.10
2018-08-13T03:34:33.715Z,20.10
2018-08-13T03:37:02.233Z,20.10
2018-08-13T03:39:30.552Z,20.10
2018-08-13T03:41:58.876Z,20.10
2018-08-13T03:44:27.189Z,20.10
2018-08-13T03:46:55.496Z,20.10
2018-08-13T03:49:23.801Z,20.10
2018-08-13T03:51:52.105Z,20.10
2018-08-13T03:54:20.517Z,20.10
2018-08-13T03:56:48.861Z,20.10
2018-08-13T03:59:17.169Z,20.10
2018-08-13T04:01:45.522Z,20.10
2018-08-13T04:04:13.901Z,20.00
2018-08-13T04:06:42.349Z,20.10
2018-08-13T04:09:10.665Z,20.10
2018-08-13T04:11:39.321Z,20.10
2018-08-13T04:14:08.682Z,20.10
2018-08-13T04:16:37.361Z,20.10
2018-08-13T04:19:06.134Z,20.10
2018-08-13T04:21:34.472Z,20.00
2018-08-13T04:24:02.808Z,20.00
2018-08-13T04:26:31.092Z,20.00
2018-08-13T04:28:59.397Z,19.90
2018-08-13T04:31:28.007Z,19.80
2018-08-13T04:33:56.314Z,19.80
2018-08-13T04:36:24.616Z,19.80
2018-08-13T04:38:53.061Z,19.80
2018-08-13T04:41:21.420Z,19.80
2018-08-13T04:43:49.745Z,19.70
2018-08-13T04:46:18.094Z,19.70
2018-08-13T04:48:46.414Z,19.70
2018-08-13T04:51:14.741Z,19.60
2018-08-13T04:53:44.020Z,19.60
2018-08-13T04:56:12.312Z,19.60
2018-08-13T04:58:40.604Z,19.60
2018-08-13T05:01:09.174Z,19.60
2018-08-13T05:03:37.593Z,19.50
2018-08-13T05:06:06.561Z,19.60
2018-08-13T05:08:34.893Z,19.50
2018-08-13T05:11:03.246Z,19.50
2018-08-13T05:13:31.561Z,19.50
2018-08-13T05:15:59.890Z,19.40
2018-08-13T05:18:28.272Z,19.30
2018-08-13T05:20:56.557Z,19.30
2018-08-13T05:23:24.986Z,19.30
2018-08-13T05:25:53.285Z,19.30
2018-08-13T05:28:22.025Z,19.30
2018-08-13T05:30:50.372Z,19.20
2018-08-13T05:33:18.838Z,19.20
2018-08-13T05:35:48.861Z,19.30
2018-08-13T05:38:17.388Z,19.30
2018-08-13T05:40:45.694Z,19.30
2018-08-13T05:43:13.996Z,19.20
2018-08-13T05:45:42.337Z,19.30
2018-08-13T05:48:10.696Z,19.20
2018-08-13T05:50:39.009Z,19.20
2018-08-13T05:53:07.994Z,19.20
2018-08-13T05:55:36.301Z,19.20
2018-08-13T05:58:04.666Z,19.30
2018-08-13T06:00:32.985Z,19.30
2018-08-13T06:03:01.369Z,19.30
2018-08-13T06:05:29.626Z,19.30
2018-08-13T06:07:58.093Z,19.40
2018-08-13T06:10:26.557Z,19.30
2018-08-13T06:12:54.889Z,19.40
2018-08-13T06:15:23.224Z,19.40
2018-08-13T06:17:51.573Z,19.50
2018-08-13T06:20:19.941Z,19.50
2018-08-13T06:22:48.268Z,19.50
2018-08-13T06:25:16.612Z,19.40
2018-08-13T06:27:44.933Z,19.30
2018-08-13T06:30:15.913Z,19.40
2018-08-13T06:32:44.515Z,19.40
2018-08-13T06:35:14.323Z,20.20
2018-08-13T06:37:43.424Z,20.30
2018-08-13T06:40:12.040Z,20.30
2018-08-13T06:42:40.599Z,20.80
2018-08-13T06:45:10.059Z,21.10
2018-08-13T06:47:39.324Z,21.20
2018-08-13T06:50:09.345Z,21.30
2018-08-13T06:52:38.018Z,21.40
2018-08-13T06:55:06.826Z,21.30
2018-08-13T06:57:35.781Z,21.20
2018-08-13T07:00:07.465Z,20.90
2018-08-13T07:02:35.765Z,20.90
2018-08-13T07:05:04.741Z,21.30
2018-08-13T07:07:33.257Z,21.50
2018-08-13T07:10:01.601Z,21.50
2018-08-13T07:12:29.933Z,21.40
2018-08-13T07:14:58.408Z,21.40
2018-08-13T07:17:26.705Z,21.30
2018-08-13T07:19:55.045Z,21.50
2018-08-13T07:22:23.433Z,21.60
2018-08-13T07:24:51.742Z,21.70
2018-08-13T07:27:20.523Z,21.70
2018-08-13T07:29:48.977Z,21.60
2018-08-13T07:32:17.309Z,21.70
2018-08-13T07:34:45.605Z,21.60
2018-08-13T07:37:14.057Z,21.60
2018-08-13T07:39:42.349Z,21.60
2018-08-13T07:42:10.657Z,21.60
2018-08-13T07:44:39.159Z,21.50
2018-08-13T07:47:07.492Z,21.50
2018-08-13T07:49:35.962Z,21.50
2018-08-13T07:52:04.385Z,21.60
2018-08-13T07:54:32.717Z,21.60
2018-08-13T07:57:01.059Z,21.60
2018-08-13T07:59:29.399Z,21.60
2018-08-13T08:01:57.692Z,21.50
2018-08-13T08:04:25.969Z,21.40
2018-08-13T08:06:54.405Z,21.20
2018-08-13T08:09:22.709Z,21.30
2018-08-13T08:11:51.093Z,21.40
2018-08-13T08:14:19.513Z,21.40
2018-08-13T08:16:48.060Z,21.40
2018-08-13T08:19:16.356Z,21.40
2018-08-13T08:21:44.877Z,21.50
2018-08-13T08:24:13.152Z,21.60
2018-08-13T08:26:41.500Z,21.60
2018-08-13T08:29:10.497Z,21.80
2018-08-13T08:31:38.871Z,21.90
2018-08-13T08:34:08.276Z,22.20
2018-08-13T08:36:36.606Z,22.80
2018-08-13T08:39:15.276Z,23.30
2018-08-13T08:41:44.589Z,23.30
2018-08-13T08:44:12.885Z,23.30
2018-08-13T08:46:41.770Z,23.30
2018-08-13T08:49:10.160Z,23.00
2018-08-13T08:51:39.753Z,23.10
2018-08-13T08:54:08.857Z,23.10
2018-08-13T08:56:37.344Z,23.00
2018-08-13T08:59:06.169Z,22.90
2018-08-13T09:01:34.493Z,23.10
2018-08-13T09:04:02.885Z,22.80
2018-08-13T09:06:31.201Z,22.80
2018-08-13T09:08:59.508Z,22.70
2018-08-13T09:11:27.963Z,22.90
2018-08-13T09:13:56.500Z,22.90
2018-08-13T09:16:24.797Z,22.80
2018-08-13T09:19:04.593Z,22.60
2018-08-13T09:21:35.284Z,23.00
2018-08-13T09:24:15.522Z,22.80
2018-08-13T09:26:55.100Z,22.80
2018-08-13T09:29:34.590Z,22.90
2018-08-13T09:32:28.198Z,23.40
2018-08-13T09:36:03.692Z,23.40
2018-08-13T09:38:31.977Z,23.60
2018-08-13T09:41:00.665Z,23.60
2018-08-13T09:43:29.208Z,24.20
2018-08-13T09:45:57.521Z,23.90
2018-08-13T09:48:26.578Z,23.90
2018-08-13T09:50:54.878Z,23.70
2018-08-13T09:53:23.201Z,23.30
2018-08-13T09:55:51.680Z,23.00
2018-08-13T09:58:20.444Z,23.30
2018-08-13T10:01:06.931Z,23.60
2018-08-13T10:03:35.493Z,23.90
2018-08-13T10:06:04.032Z,23.50
2018-08-13T10:08:32.460Z,23.40
2018-08-13T10:11:00.829Z,23.10
2018-08-13T10:13:29.241Z,23.00
2018-08-13T10:15:57.777Z,23.20
2018-08-13T10:18:26.243Z,23.50
2018-08-13T10:20:54.661Z,23.50
2018-08-13T10:23:23.107Z,23.70
2018-08-13T10:25:51.517Z,23.50
2018-08-13T10:28:19.897Z,23.50
2018-08-13T10:30:48.169Z,23.60
2018-08-13T10:33:16.493Z,23.60
2018-08-13T10:35:44.873Z,23.60
2018-08-13T10:38:13.202Z,23.50
2018-08-13T10:40:41.734Z,23.30
2018-08-13T10:43:10.122Z,23.60
2018-08-13T10:45:38.483Z,23.50
2018-08-13T10:48:07.043Z,23.60
2018-08-13T10:50:35.513Z,23.50
2018-08-13T10:53:04.942Z,23.70
2018-08-13T10:55:33.611Z,24.10
2018-08-13T10:58:04.749Z,24.70
2018-08-13T11:00:36.724Z,24.90
2018-08-13T11:05:50.185Z,24.50
2018-08-13T11:08:18.790Z,24.10
2018-08-13T11:10:47.387Z,23.50
2018-08-13T11:13:16.159Z,22.70
2018-08-13T11:15:44.448Z,22.80
2018-08-13T11:18:12.831Z,23.00
2018-08-13T11:20:41.497Z,23.20
2018-08-13T11:23:11.580Z,23.80
2018-08-13T11:25:39.857Z,24.50
2018-08-13T11:28:08.160Z,25.10
2018-08-13T11:30:36.416Z,24.90
2018-08-13T11:33:05.247Z,25.30
2018-08-13T11:35:33.547Z,25.80
2018-08-13T11:38:02.189Z,26.00
2018-08-13T11:40:30.496Z,25.30
2018-08-13T11:42:58.984Z,24.60
2018-08-13T11:45:27.434Z,25.10
2018-08-13T11:47:55.721Z,25.80
2018-08-13T11:50:24.165Z,25.80
2018-08-13T11:52:52.449Z,26.90
2018-08-13T11:55:21.008Z,27.00
2018-08-13T11:57:50.321Z,27.10
2018-08-13T12:00:18.608Z,26.60
2018-08-13T12:02:46.903Z,26.80
2018-08-13T12:05:16.226Z,26.10
2018-08-13T12:07:45.105Z,26.00
2018-08-13T12:10:13.831Z,25.40
2018-08-13T12:12:43.520Z,25.30
2018-08-13T12:15:17.077Z,25.60
2018-08-13T12:17:45.614Z,24.70
2018-08-13T12:20:15.802Z,24.50
2018-08-13T12:22:44.634Z,24.70
2018-08-13T12:25:19.365Z,24.90
2018-08-13T12:27:47.662Z,24.60
2018-08-13T12:30:16.369Z,24.30
2018-08-13T12:32:44.628Z,24.00
2018-08-13T12:35:13.281Z,23.80
2018-08-13T12:37:41.529Z,23.80
2018-08-13T12:40:10.901Z,23.70
2018-08-13T12:42:39.869Z,23.50
2018-08-13T12:45:11.650Z,23.50
2018-08-13T12:47:40.141Z,23.60
2018-08-13T12:50:10.774Z,23.70
2018-08-13T12:52:39.084Z,23.40
2018-08-13T12:55:09.053Z,22.70
2018-08-13T12:57:37.425Z,22.30
2018-08-13T13:00:09.346Z,22.20
2018-08-13T13:02:39.757Z,22.10
2018-08-13T13:05:09.671Z,22.10
2018-08-13T13:07:38.049Z,21.70
2018-08-13T13:10:08.041Z,21.70
2018-08-13T13:12:36.328Z,21.30
2018-08-13T13:15:06.718Z,21.00
2018-08-13T13:17:35.201Z,20.90
2018-08-13T13:20:04.209Z,20.40
2018-08-13T13:22:32.551Z,20.40
2018-08-13T13:25:00.927Z,20.40
2018-08-13T13:27:29.378Z,20.50
2018-08-13T13:29:59.160Z,20.40
2018-08-13T13:32:27.740Z,20.10
2018-08-13T13:34:56.105Z,20.20
2018-08-13T13:37:24.642Z,20.20
2018-08-13T13:39:55.206Z,20.00
2018-08-13T13:42:23.857Z,19.90
2018-08-13T13:44:53.028Z,19.90
2018-08-13T13:47:21.435Z,19.70
2018-08-13T13:49:50.629Z,19.70
2018-08-13T13:52:19.175Z,19.60
2018-08-13T13:54:47.541Z,19.60
2018-08-13T13:57:16.709Z,19.50
2018-08-13T13:59:45.183Z,19.60
2018-08-13T14:02:13.656Z,19.80
2018-08-13T14:04:42.305Z,19.80
2018-08-13T14:07:12.053Z,19.90
2018-08-13T14:09:40.794Z,19.90
2018-08-13T14:12:09.668Z,20.00
2018-08-13T14:14:38.344Z,20.20
2018-08-13T14:17:06.759Z,20.20
2018-08-13T14:19:35.574Z,20.40
2018-08-13T14:22:04.010Z,20.50
2018-08-13T14:24:32.574Z,20.60
2018-08-13T14:27:01.371Z,20.60
2018-08-13T14:29:29.697Z,20.30
2018-08-13T14:31:58.065Z,20.70
2018-08-13T14:34:26.910Z,20.70
2018-08-13T14:36:55.262Z,20.70
2018-08-13T14:39:26.525Z,20.70
2018-08-13T14:41:54.913Z,20.80
2018-08-13T14:44:23.193Z,20.50
2018-08-13T14:46:51.533Z,20.60
2018-08-13T14:49:19.938Z,20.50
2018-08-13T14:51:49.336Z,20.50
2018-08-13T14:54:17.622Z,20.50
2018-08-13T14:56:46.317Z,20.50
2018-08-13T14:59:14.604Z,20.80
2018-08-13T15:01:42.969Z,20.80
2018-08-13T15:04:11.499Z,20.80
2018-08-13T15:06:39.833Z,20.70
2018-08-13T15:09:09.308Z,20.40
2018-08-13T15:11:40.551Z,20.20
2018-08-13T15:14:10.662Z,20.20
2018-08-13T15:16:39.410Z,20.10
2018-08-13T15:19:08.304Z,20.10
2018-08-13T15:21:36.681Z,20.30
2018-08-13T15:24:05.056Z,20.20
2018-08-13T15:26:33.685Z,20.00
2018-08-13T15:29:02.185Z,19.80
2018-08-13T15:31:30.525Z,19.80
2018-08-13T15:33:58.867Z,20.00
2018-08-13T15:36:27.239Z,20.10
2018-08-13T15:38:55.566Z,19.90
2018-08-13T15:41:24.029Z,19.80
2018-08-13T15:43:52.360Z,19.50
2018-08-13T15:46:20.820Z,19.40
2018-08-13T15:48:49.133Z,19.50
2018-08-13T15:51:17.447Z,19.60
2018-08-13T15:56:16.134Z,19.20
2018-08-13T15:58:44.790Z,19.20
2018-08-13T16:01:13.097Z,19.30
2018-08-13T16:03:41.414Z,19.10
2018-08-13T16:06:09.770Z,19.30
2018-08-13T16:08:38.073Z,19.30
2018-08-13T16:11:06.431Z,19.40
2018-08-13T16:13:34.729Z,19.60
2018-08-13T16:16:03.112Z,19.60
2018-08-13T16:18:32.008Z,19.50
2018-08-13T16:21:00.665Z,19.80
2018-08-13T16:23:29.009Z,20.00
2018-08-13T16:25:59.043Z,19.80
2018-08-13T16:28:28.021Z,19.80
2018-08-13T16:30:57.333Z,19.80
2018-08-13T16:33:25.873Z,19.90
2018-08-13T16:35:54.790Z,20.00
2018-08-13T16:38:23.088Z,20.00
2018-08-13T16:40:51.504Z,20.30
2018-08-13T16:43:19.797Z,20.30
2018-08-13T16:45:48.070Z,20.40
2018-08-13T16:48:16.751Z,20.70
2018-08-13T16:50:45.047Z,20.70
2018-08-13T16:53:14.334Z,20.70
2018-08-13T16:55:42.718Z,20.70
2018-08-13T16:58:11.305Z,20.60
2018-08-13T17:00:39.591Z,20.50
2018-08-13T17:03:08.294Z,20.60
2018-08-13T17:05:36.645Z,20.50
2018-08-13T17:08:04.989Z,20.40
2018-08-13T17:10:33.275Z,20.50
2018-08-13T17:13:01.621Z,20.40
2018-08-13T17:15:31.151Z,20.40
2018-08-13T17:18:00.977Z,20.40
2018-08-13T17:20:31.612Z,20.30
2018-08-13T17:22:59.972Z,20.60
2018-08-13T17:25:28.392Z,20.50
2018-08-13T17:27:56.686Z,20.50
2018-08-13T17:30:26.098Z,20.40
2018-08-13T17:32:55.865Z,20.40
2018-08-13T17:35:27.741Z,20.30
2018-08-13T17:37:56.036Z,20.30
2018-08-13T17:40:24.812Z,20.30
2018-08-13T17:42:54.025Z,20.10
2018-08-13T17:45:23.020Z,20.10
2018-08-13T17:47:52.454Z,20.00
2018-08-13T17:50:21.642Z,20.00
2018-08-13T17:52:50.118Z,20.10
2018-08-13T17:55:19.103Z,20.00
2018-08-13T17:57:47.433Z,20.00
2018-08-13T18:00:18.010Z,19.90
2018-08-13T18:02:46.349Z,19.90
2018-08-13T18:05:19.340Z,19.90
2018-08-13T18:07:48.141Z,19.90
2018-08-13T18:10:21.093Z,19.80
2018-08-13T18:12:49.424Z,19.80
2018-08-13T18:15:18.534Z,19.70
2018-08-13T18:17:49.237Z,19.70
2018-08-13T18:20:18.938Z,19.70
2018-08-13T18:22:47.241Z,19.70
2018-08-13T18:25:16.101Z,19.60
2018-08-13T18:27:45.709Z,19.60
2018-08-13T18:30:19.042Z,19.60
2018-08-13T18:32:47.829Z,19.50
2018-08-13T18:35:16.460Z,19.50
2018-08-13T18:37:44.870Z,19.50
2018-08-13T18:40:18.434Z,19.40
2018-08-13T18:42:46.858Z,19.40
2018-08-13T18:45:15.185Z,19.20
2018-08-13T18:47:43.533Z,19.20
2018-08-13T18:50:14.207Z,19.10
2018-08-13T18:52:43.101Z,19.20
2018-08-13T18:55:13.905Z,19.30
2018-08-13T18:57:42.345Z,19.30
2018-08-13T19:00:13.394Z,19.20
2018-08-13T19:02:42.178Z,19.20
2018-08-13T19:05:11.812Z,19.20
2018-08-13T19:07:40.130Z,19.30
2018-08-13T19:10:11.377Z,19.30
2018-08-13T19:12:39.763Z,19.30
2018-08-13T19:15:10.814Z,19.10
2018-08-13T19:17:39.173Z,19.10
2018-08-13T19:20:09.677Z,19.10
2018-08-13T19:22:38.203Z,19.10
2018-08-13T19:25:09.981Z,19.10
2018-08-13T19:27:39.030Z,19.00
2018-08-13T19:30:08.329Z,19.10
2018-08-13T19:32:36.910Z,19.10
2018-08-13T19:35:06.176Z,19.00
2018-08-13T19:37:34.681Z,18.90
2018-08-13T19:40:04.076Z,18.90
2018-08-13T19:42:32.481Z,18.80
2018-08-13T19:45:00.873Z,18.70
2018-08-13T19:47:29.472Z,18.70
2018-08-13T19:49:57.841Z,18.60
2018-08-13T19:52:26.292Z,18.60
2018-08-13T19:54:55.316Z,18.50
2018-08-13T19:57:23.651Z,18.50
2018-08-13T19:59:52.037Z,18.40
2018-08-13T20:02:20.421Z,18.30
2018-08-13T20:04:49.345Z,18.30
2018-08-13T20:07:17.776Z,18.20
2018-08-13T20:09:46.122Z,18.20
2018-08-13T20:12:14.498Z,18.30
2018-08-13T20:14:43.918Z,18.30
2018-08-13T20:17:12.579Z,18.30
2018-08-13T20:19:41.007Z,18.20
2018-08-13T20:22:12.237Z,18.20
2018-08-13T20:24:40.809Z,18.20
2018-08-13T20:27:09.401Z,18.30
2018-08-13T20:29:38.546Z,18.20
2018-08-13T20:32:08.839Z,18.10
2018-08-13T20:34:37.405Z,18.00
2018-08-13T20:37:06.432Z,18.00
2018-08-13T20:39:37.643Z,18.10
2018-08-13T20:42:07.135Z,18.00
2018-08-13T20:44:35.586Z,18.10
2018-08-13T20:47:03.949Z,18.00
2018-08-13T20:49:32.335Z,17.90
2018-08-13T20:52:00.757Z,17.90
2018-08-13T20:54:29.150Z,17.90
2018-08-13T20:56:58.514Z,17.80
2018-08-13T20:59:28.386Z,17.90
2018-08-13T21:01:56.940Z,17.90
2018-08-13T21:04:25.329Z,17.90
2018-08-13T21:06:53.813Z,17.90
2018-08-13T21:09:22.881Z,17.90
2018-08-13T21:11:51.157Z,17.80
2018-08-13T21:14:19.669Z,17.80
2018-08-13T21:16:48.059Z,17.80
2018-08-13T21:19:16.452Z,17.80
2018-08-13T21:21:44.787Z,17.70
2018-08-13T21:24:13.173Z,17.70
2018-08-13T21:26:41.478Z,17.80
2018-08-13T21:29:09.820Z,17.70
2018-08-13T21:31:38.213Z,17.80
2018-08-13T21:34:06.535Z,17.80
2018-08-13T21:36:36.159Z,17.80
2018-08-13T21:39:05.845Z,17.80
2018-08-13T21:41:34.181Z,17.90
2018-08-13T21:44:02.499Z,17.90
2018-08-13T21:46:30.836Z,17.90
2018-08-13T21:48:59.146Z,18.00
2018-08-13T21:51:27.457Z,18.00
2018-08-13T21:53:56.117Z,18.00
2018-08-13T21:56:25.084Z,18.00
2018-08-13T21:58:53.910Z,18.10
2018-08-13T22:01:27.689Z,18.10
2018-08-13T22:03:55.990Z,18.10
2018-08-13T22:06:24.305Z,18.10
2018-08-13T22:08:52.689Z,18.10
2018-08-13T22:11:21.048Z,18.10
2018-08-13T22:13:49.349Z,18.10
2018-08-13T22:16:17.685Z,18.10
2018-08-13T22:18:46.014Z,18.10
2018-08-13T22:21:14.335Z,18.10
2018-08-13T22:23:53.955Z,18.00
2018-08-13T22:26:22.253Z,18.10
2018-08-13T22:28:50.553Z,18.10
2018-08-13T22:31:18.979Z,18.10
2018-08-13T22:33:47.275Z,18.10
2018-08-13T22:36:15.628Z,18.10
2018-08-13T22:38:44.031Z,18.10
2018-08-13T22:41:12.341Z,18.20
2018-08-13T22:43:41.204Z,18.10
2018-08-13T22:46:09.521Z,18.20
2018-08-13T22:48:38.125Z,18.20
2018-08-13T22:51:06.544Z,18.20
2018-08-13T22:53:34.860Z,18.20
2018-08-13T22:56:03.210Z,18.20
2018-08-13T22:58:31.525Z,18.20
2018-08-13T23:00:59.869Z,18.30
2018-08-13T23:03:28.157Z,18.20
2018-08-13T23:05:56.451Z,18.20
2018-08-13T23:08:24.781Z,18.20
2018-08-13T23:10:53.210Z,18.20
2018-08-13T23:13:21.493Z,18.20
2018-08-13T23:15:49.801Z,18.30
2018-08-13T23:18:18.232Z,18.30
2018-08-13T23:20:46.561Z,18.20
2018-08-13T23:23:14.926Z,18.20
2018-08-13T23:25:43.901Z,18.30
2018-08-13T23:28:12.245Z,18.30
2018-08-13T23:30:40.757Z,18.30
2018-08-13T23:33:09.097Z,18.30
2018-08-13T23:35:37.413Z,18.30
2018-08-13T23:38:05.976Z,18.20
2018-08-13T23:40:34.303Z,18.30
2018-08-13T23:43:02.629Z,18.20
2018-08-13T23:45:31.984Z,18.20
2018-08-13T23:48:00.377Z,18.20
2018-08-13T23:50:28.721Z,18.20
2018-08-13T23:53:00.941Z,18.20
2018-08-13T23:55:33.785Z,18.20
2018-08-13T23:58:02.675Z,18.20
